Time;durP1;ratioP1;P1;durP2;ratioP2;P2;SDS_P1;SDS_P2;PMS_P1;PMS_P2;Temp;Humidity;BMP_temperature;BMP_pressure;BME280_temperature;BME280_humidity;BME280_pressure;Samples;Min_cycle;Max_cycle;Signal;HPM_P1;HPM_P2
2022/10/07 00:01:16;;;;;;;4.28;3.13;;;;;;;18.70;65.28;101443.88;5017517;28;20030;-50
2022/10/07 00:03:43;;;;;;;4.55;2.83;;;;;;;18.62;65.33;101449.69;5014876;28;20060;-49
2022/10/07 00:06:17;;;;;;;6.70;3.40;;;;;;;18.37;65.39;101443.78;5010590;28;20034;-46
2022/10/07 00:08:46;;;;;;;3.92;3.05;;;;;;;18.26;66.51;101447.38;5018878;28;20029;-46
2022/10/07 00:11:22;;;;;;;6.88;3.63;;;;;;;18.23;67.27;101453.28;5032820;28;20355;-47
2022/10/07 00:13:55;;;;;;;6.53;3.65;;;;;;;18.01;67.33;101447.72;5034299;28;20041;-48
2022/10/07 00:16:25;;;;;;;5.47;3.42;;;;;;;17.88;68.07;101446.94;5032053;28;20052;-43
2022/10/07 00:18:55;;;;;;;7.55;3.22;;;;;;;18.05;68.21;101457.84;5028707;28;20631;-43
2022/10/07 00:21:21;;;;;;;5.07;3.90;;;;;;;18.06;67.80;101451.34;5037584;28;20056;-44
2022/10/07 00:23:48;;;;;;;5.38;4.20;;;;;;;17.91;68.42;101451.03;5030318;28;20033;-44
2022/10/07 00:26:20;;;;;;;7.03;4.65;;;;;;;17.55;70.16;101462.97;5034279;28;20109;-45
2022/10/07 00:28:47;;;;;;;8.82;4.38;;;;;;;17.68;69.93;101451.88;5016094;28;20048;-43
2022/10/07 00:31:17;;;;;;;8.90;4.18;;;;;;;17.31;70.95;101451.31;5021328;28;20390;-44
2022/10/07 00:33:44;;;;;;;7.28;4.82;;;;;;;17.21;71.66;101456.50;5035529;28;20112;-45
2022/10/07 00:36:13;;;;;;;5.82;3.90;;;;;;;16.97;72.34;101448.38;5046490;28;20029;-44
2022/10/07 00:38:40;;;;;;;8.57;4.35;;;;;;;16.87;72.46;101446.25;5034414;28;20025;-43
2022/10/07 00:41:08;;;;;;;6.70;4.68;;;;;;;16.74;73.05;101449.16;5052462;28;20029;-44
2022/10/07 00:43:34;;;;;;;5.95;4.18;;;;;;;16.64;73.59;101444.28;5054255;28;20048;-44
2022/10/07 00:46:28;;;;;;;7.28;4.72;;;;;;;16.73;73.40;101454.81;5054299;28;20029;-45
2022/10/07 00:49:06;;;;;;;5.47;4.03;;;;;;;16.72;72.74;101442.34;5054591;28;20075;-45
2022/10/07 00:51:35;;;;;;;7.18;4.03;;;;;;;16.72;73.36;101443.19;5045957;28;20033;-52
2022/10/07 00:54:03;;;;;;;10.32;4.97;;;;;;;16.67;73.23;101442.19;5036195;28;20038;-45
2022/10/07 00:56:31;;;;;;;9.70;4.75;;;;;;;16.52;73.85;101446.13;5033901;28;20022;-43
2022/10/07 00:59:00;;;;;;;13.25;5.00;;;;;;;16.43;74.39;101444.81;5036112;28;20083;-47
2022/10/07 01:01:26;;;;;;;6.40;4.10;;;;;;;16.27;74.23;101440.91;5050372;28;20064;-45
2022/10/07 01:03:53;;;;;;;5.25;3.70;;;;;;;16.35;73.77;101443.25;5034136;28;20053;-45
2022/10/07 01:06:19;;;;;;;6.50;3.83;;;;;;;16.29;74.03;101437.97;5024868;28;20377;-46
2022/10/07 01:08:48;;;;;;;6.93;3.67;;;;;;;16.25;74.04;101444.88;5016385;28;20050;-47
2022/10/07 01:11:36;;;;;;;5.53;4.32;;;;;;;15.94;75.05;101446.72;5031194;28;20072;-48
2022/10/07 01:14:15;;;;;;;5.60;3.50;;;;;;;15.75;76.00;101445.09;5033410;28;20063;-50
2022/10/07 01:16:50;;;;;;;4.97;3.38;;;;;;;15.75;75.85;101442.38;5031857;28;20053;-49
2022/10/07 01:19:40;;;;;;;4.18;3.15;;;;;;;15.56;76.66;101445.06;5035232;28;20033;-50
2022/10/07 01:22:12;;;;;;;4.47;3.13;;;;;;;15.74;76.64;101446.97;5033722;28;20061;-48
2022/10/07 01:25:15;;;;;;;6.75;3.25;;;;;;;15.57;77.45;101451.28;5034672;28;20429;-47
2022/10/07 01:27:51;;;;;;;6.15;3.30;;;;;;;15.70;77.09;101458.44;5033021;28;20083;-48
2022/10/07 01:30:18;;;;;;;5.25;3.45;;;;;;;15.31;78.80;101457.75;5032499;28;20073;-47
2022/10/07 01:32:58;;;;;;;5.55;3.72;;;;;;;15.26;79.45;101454.91;5034094;28;20076;-46
2022/10/07 01:35:31;;;;;;;6.82;3.55;;;;;;;15.17;80.35;101464.34;5013010;28;20029;-49
2022/10/07 01:38:00;;;;;;;5.05;3.55;;;;;;;15.09;80.65;101457.34;5013763;28;20033;-48
2022/10/07 01:40:53;;;;;;;4.97;3.78;;;;;;;14.93;81.24;101456.00;5013506;28;20033;-48
2022/10/07 01:43:21;;;;;;;5.90;3.88;;;;;;;14.85;81.49;101448.22;5013674;28;20104;-49
2022/10/07 01:45:50;;;;;;;4.32;3.17;;;;;;;14.93;81.43;101456.00;5011943;28;20036;-48
2022/10/07 01:48:17;;;;;;;4.55;3.08;;;;;;;15.02;81.03;101454.69;5013650;28;20448;-46
2022/10/07 01:50:43;;;;;;;6.28;3.88;;;;;;;14.88;81.60;101455.88;5013682;28;20410;-46
2022/10/07 01:53:31;;;;;;;5.15;3.78;;;;;;;14.87;81.88;101456.06;5013675;28;20022;-47
2022/10/07 01:56:16;;;;;;;4.97;3.55;;;;;;;14.65;82.73;101451.03;5012876;28;20517;-47
2022/10/07 01:58:57;;;;;;;4.20;3.22;;;;;;;14.74;82.22;101457.00;5033134;28;20055;-49
2022/10/07 02:01:38;;;;;;;3.92;3.00;;;;;;;14.41;83.91;101458.00;5017551;28;20022;-49
2022/10/07 02:04:25;;;;;;;4.10;3.28;;;;;;;14.68;82.75;101463.25;5037809;28;20021;-49
2022/10/07 02:07:18;;;;;;;5.18;3.30;;;;;;;14.47;83.28;101464.44;5037316;28;20113;-48
2022/10/07 02:10:11;;;;;;;5.13;4.28;;;;;;;14.53;83.08;101466.25;5012976;28;20105;-47
2022/10/07 02:12:46;;;;;;;5.05;3.80;;;;;;;14.55;83.31;101466.03;5012347;28;20449;-48
2022/10/07 02:15:21;;;;;;;6.68;4.72;;;;;;;14.46;83.73;101477.03;5013464;28;20072;-48
2022/10/07 02:18:01;;;;;;;5.50;4.00;;;;;;;14.53;83.13;101477.84;5052304;28;20055;-47
2022/10/07 02:20:31;;;;;;;5.00;3.72;;;;;;;14.43;83.43;101472.06;5040081;28;20034;-47
2022/10/07 02:23:01;;;;;;;7.30;4.00;;;;;;;14.56;83.29;101483.88;5032074;28;20537;-47
2022/10/07 02:25:33;;;;;;;4.03;3.58;;;;;;;14.51;83.81;101481.81;5020910;28;20034;-48
2022/10/07 02:28:04;;;;;;;4.13;3.63;;;;;;;14.27;84.80;101494.16;5012323;28;20026;-46
2022/10/07 02:30:33;;;;;;;4.85;3.63;;;;;;;14.28;85.22;101493.09;5012307;28;20081;-48
2022/10/07 02:33:02;;;;;;;6.40;3.88;;;;;;;14.33;84.93;101498.66;5033075;28;20032;-49
2022/10/07 02:35:31;;;;;;;4.57;3.42;;;;;;;14.31;84.93;101503.44;5032117;28;20017;-49
2022/10/07 02:38:01;;;;;;;6.70;4.05;;;;;;;14.21;85.95;101503.91;5031574;28;20091;-49
2022/10/07 02:40:34;;;;;;;6.18;4.05;;;;;;;14.11;86.60;101500.84;5032000;28;20072;-48
2022/10/07 02:43:24;;;;;;;4.60;3.45;;;;;;;14.10;86.37;101504.56;5029660;28;20037;-46
2022/10/07 02:46:11;;;;;;;5.18;3.97;;;;;;;14.05;86.73;101506.22;5012335;28;20398;-50
2022/10/07 02:48:42;;;;;;;5.07;4.07;;;;;;;14.12;85.58;101510.56;5012887;28;20037;-48
2022/10/07 02:51:17;;;;;;;5.63;4.03;;;;;;;14.03;85.84;101503.75;5012560;28;20036;-48
2022/10/07 02:53:45;;;;;;;6.30;4.30;;;;;;;14.09;85.50;101510.16;5028720;28;20080;-48
2022/10/07 02:56:12;;;;;;;5.38;4.05;;;;;;;13.99;85.63;101516.81;5032016;28;20029;-46
2022/10/07 02:58:44;;;;;;;7.07;5.28;;;;;;;13.89;86.62;101518.31;5032278;28;20393;-48
2022/10/07 03:01:17;;;;;;;6.97;4.80;;;;;;;13.94;86.47;101524.72;5030838;28;20541;-49
2022/10/07 03:03:44;;;;;;;7.55;4.45;;;;;;;14.04;86.13;101520.72;5032182;28;20048;-48
2022/10/07 03:06:17;;;;;;;5.97;4.30;;;;;;;13.93;86.17;101519.50;5031681;28;20051;-47
2022/10/07 03:08:43;;;;;;;6.05;4.72;;;;;;;13.85;86.29;101520.56;5031716;28;20025;-45
2022/10/07 03:11:10;;;;;;;7.00;4.47;;;;;;;13.80;86.22;101520.38;5031645;28;20034;-45
2022/10/07 03:13:36;;;;;;;5.40;4.22;;;;;;;13.82;85.34;101512.91;5032262;28;20488;-46
2022/10/07 03:16:04;;;;;;;5.10;3.42;;;;;;;13.99;84.87;101521.34;5015653;28;20034;-46
2022/10/07 03:18:30;;;;;;;4.45;3.83;;;;;;;13.70;85.84;101520.81;5011313;28;20378;-44
2022/10/07 03:21:01;;;;;;;4.95;3.15;;;;;;;13.82;86.02;101528.22;5011455;28;20069;-44
2022/10/07 03:23:29;;;;;;;6.50;3.75;;;;;;;13.90;85.46;101531.53;5011641;28;20068;-45
2022/10/07 03:25:57;;;;;;;8.75;5.32;;;;;;;13.92;85.47;101534.84;5011577;28;20030;-48
2022/10/07 03:28:26;;;;;;;6.15;4.63;;;;;;;13.95;85.21;101533.59;5022952;28;20478;-47
2022/10/07 03:30:52;;;;;;;7.32;5.15;;;;;;;13.90;85.71;101533.41;5031115;28;20056;-45
2022/10/07 03:33:24;;;;;;;7.95;4.90;;;;;;;13.88;85.72;101533.63;5033279;28;20398;-46
2022/10/07 03:35:50;;;;;;;7.57;4.35;;;;;;;13.80;85.77;101536.53;5012259;28;20163;-45
2022/10/07 03:38:17;;;;;;;4.75;4.15;;;;;;;13.71;86.10;101543.16;5011716;28;20042;-45
2022/10/07 03:40:43;;;;;;;6.30;3.88;;;;;;;13.70;86.39;101546.88;5037814;28;20025;-47
2022/10/07 03:43:10;;;;;;;5.15;3.75;;;;;;;13.63;86.57;101536.13;5042249;28;20558;-45
2022/10/07 03:45:43;;;;;;;5.60;2.95;;;;;;;13.71;86.50;101549.38;5032751;28;20092;-45
2022/10/07 03:48:09;;;;;;;4.07;3.35;;;;;;;13.72;86.35;101553.72;5047303;28;20025;-44
2022/10/07 03:50:36;;;;;;;5.72;3.95;;;;;;;13.60;86.89;101549.16;5045023;28;20072;-46
2022/10/07 03:53:03;;;;;;;5.55;4.07;;;;;;;13.72;86.41;101550.22;5033720;28;20033;-48
2022/10/07 03:55:30;;;;;;;4.60;4.03;;;;;;;13.63;86.99;101546.06;5033724;28;20104;-46
2022/10/07 03:57:56;;;;;;;4.13;3.13;;;;;;;13.63;86.80;101546.91;5033652;28;20033;-45
2022/10/07 04:00:24;;;;;;;3.67;2.88;;;;;;;13.79;86.27;101560.97;5033663;28;20033;-47
2022/10/07 04:02:51;;;;;;;4.50;3.03;;;;;;;13.88;85.61;101565.91;5034778;28;20041;-47
2022/10/07 04:05:19;;;;;;;5.60;3.97;;;;;;;13.89;85.17;101562.19;5032952;28;20051;-47
2022/10/07 04:07:46;;;;;;;5.82;4.13;;;;;;;13.84;85.06;101570.06;5039317;28;20040;-48
2022/10/07 04:10:15;;;;;;;4.10;2.75;;;;;;;13.86;85.45;101564.47;5029951;28;20076;-46
2022/10/07 04:12:43;;;;;;;4.20;2.78;;;;;;;13.77;85.98;101565.69;5034583;28;20036;-45
2022/10/07 04:15:12;;;;;;;6.43;3.63;;;;;;;13.66;86.52;101567.19;5032603;28;20041;-45
2022/10/07 04:17:44;;;;;;;5.55;3.42;;;;;;;13.52;87.30;101569.06;5034396;28;20060;-46
2022/10/07 04:20:12;;;;;;;4.55;3.00;;;;;;;13.47;87.47;101568.84;5032815;28;20068;-47
2022/10/07 04:22:38;;;;;;;3.72;2.88;;;;;;;13.42;88.44;101566.78;5034139;28;20330;-49
2022/10/07 04:27:54;;;;;;;7.40;3.47;;;;;;;13.49;88.07;101577.53;5035165;28;20152;-47
2022/10/07 04:30:22;;;;;;;4.47;3.50;;;;;;;13.39;88.60;101571.75;5033071;28;20056;-46
2022/10/07 04:32:49;;;;;;;3.83;2.88;;;;;;;13.52;87.63;101581.69;5031370;28;20068;-46
2022/10/07 04:35:24;;;;;;;4.57;3.63;;;;;;;13.54;86.95;101584.97;5028840;28;20026;-45
2022/10/07 04:38:00;;;;;;;5.43;3.22;;;;;;;13.54;86.68;101585.78;5034546;28;20033;-45
2022/10/07 04:40:26;;;;;;;;;;;;;;;13.59;86.30;101588.69;5034854;28;20025;-47
2022/10/07 04:45:37;;;;;;;6.93;3.88;;;;;;;13.58;86.78;101592.44;5033986;28;20083;-44
2022/10/07 04:48:04;;;;;;;4.70;3.10;;;;;;;13.58;86.68;101596.97;5033932;28;20022;-46
2022/10/07 04:50:32;;;;;;;4.97;3.97;;;;;;;13.44;87.09;101593.47;5025874;28;20026;-45
2022/10/07 04:52:59;;;;;;;5.63;3.67;;;;;;;13.44;87.26;101594.31;5022006;28;20044;-46
2022/10/07 04:55:28;;;;;;;6.78;3.65;;;;;;;13.47;87.25;101601.13;5033570;28;20026;-47
2022/10/07 04:57:54;;;;;;;6.60;4.10;;;;;;;13.57;86.72;101606.09;5033841;28;20025;-47
2022/10/07 05:00:20;;;;;;;5.20;3.80;;;;;;;13.62;85.93;101601.75;5033790;28;20117;-48
2022/10/07 05:02:49;;;;;;;5.35;3.85;;;;;;;13.46;86.08;101602.97;5027849;28;20030;-45
2022/10/07 05:05:16;;;;;;;6.03;3.53;;;;;;;13.50;86.54;101605.28;5023439;28;20411;-47
2022/10/07 05:07:43;;;;;;;8.60;4.53;;;;;;;13.35;87.32;101613.53;5014071;28;20025;-44
2022/10/07 05:10:10;;;;;;;6.18;3.90;;;;;;;13.42;86.84;101609.78;5013666;28;20045;-45
2022/10/07 05:12:36;;;;;;;6.65;4.00;;;;;;;13.48;86.43;101608.97;5013820;28;20109;-47
2022/10/07 05:15:03;;;;;;;6.15;4.20;;;;;;;13.51;86.60;101623.88;5013277;28;20467;-46
2022/10/07 05:17:29;;;;;;;5.50;3.90;;;;;;;13.58;86.32;101621.19;5013885;28;20041;-44
2022/10/07 05:19:55;;;;;;;6.22;3.65;;;;;;;13.42;87.20;101625.94;5013741;28;20478;-46
2022/10/07 05:22:22;;;;;;;5.18;3.38;;;;;;;13.41;86.92;101624.28;5013176;28;20022;-48
2022/10/07 05:24:48;;;;;;;4.78;3.33;;;;;;;13.64;86.74;101614.97;5013451;28;20026;-47
2022/10/07 05:27:14;;;;;;;5.85;3.50;;;;;;;13.70;86.27;101622.22;5013588;28;20037;-48
2022/10/07 05:29:40;;;;;;;4.28;2.58;;;;;;;13.63;86.81;101610.63;5013543;28;20112;-48
2022/10/07 05:32:07;;;;;;;3.95;2.47;;;;;;;13.63;86.74;101616.84;5013630;28;20073;-45
2022/10/07 05:34:33;;;;;;;3.80;2.20;;;;;;;13.61;86.87;101629.69;5025793;28;20525;-45
2022/10/07 05:37:00;;;;;;;3.65;2.47;;;;;;;13.61;86.79;101635.06;5053125;28;20112;-45
2022/10/07 05:39:26;;;;;;;3.47;2.60;;;;;;;13.54;87.03;101641.47;5052935;28;20024;-45
2022/10/07 05:41:52;;;;;;;3.35;2.60;;;;;;;13.51;87.55;101639.19;5053216;28;20622;-47
2022/10/07 05:44:18;;;;;;;3.63;2.83;;;;;;;13.63;86.84;101637.53;5052781;28;20040;-48
2022/10/07 05:46:45;;;;;;;5.22;2.20;;;;;;;13.65;86.00;101635.47;5053040;28;20029;-45
2022/10/07 05:49:11;;;;;;;4.68;2.80;;;;;;;13.52;86.53;101638.97;5052406;28;20057;-46
2022/10/07 05:51:37;;;;;;;5.03;3.08;;;;;;;13.60;86.21;101646.00;5052962;28;20553;-45
2022/10/07 05:54:03;;;;;;;4.95;3.25;;;;;;;13.54;87.01;101649.53;5052759;28;20029;-49
2022/10/07 05:56:30;;;;;;;5.68;3.78;;;;;;;13.67;86.29;101653.06;5052543;28;20021;-45
2022/10/07 05:58:57;;;;;;;5.05;3.25;;;;;;;13.44;87.09;101644.56;5023879;28;20546;-47
2022/10/07 06:01:25;;;;;;;4.25;2.75;;;;;;;13.38;87.26;101651.59;5012762;28;20111;-45
2022/10/07 06:03:56;;;;;;;6.50;3.60;;;;;;;13.45;87.21;101649.75;5012840;28;20045;-49
2022/10/07 06:06:24;;;;;;;4.13;2.78;;;;;;;13.48;86.92;101654.69;5020486;28;20390;-49
2022/10/07 06:08:51;;;;;;;8.20;3.25;;;;;;;13.50;86.87;101656.38;5031527;28;20025;-46
2022/10/07 06:14:05;;;;;;;3.72;2.85;;;;;;;13.47;86.05;101653.03;5032620;28;20386;-46
2022/10/07 06:16:31;;;;;;;5.07;2.88;;;;;;;13.54;85.79;101650.34;5032417;28;20041;-44
2022/10/07 06:18:58;;;;;;;4.20;2.85;;;;;;;13.46;86.46;101650.56;5032488;28;20130;-45
2022/10/07 06:21:26;;;;;;;4.57;3.47;;;;;;;13.46;85.87;101651.38;5036164;28;20037;-42
2022/10/07 06:23:54;;;;;;;5.07;3.92;;;;;;;13.33;86.41;101650.56;5052323;28;20049;-44
2022/10/07 06:26:21;;;;;;;5.45;3.28;;;;;;;13.25;87.03;101654.25;5051927;28;20033;-46
2022/10/07 06:28:48;;;;;;;6.07;3.90;;;;;;;13.41;86.48;101655.72;5052171;28;20100;-46
2022/10/07 06:31:24;;;;;;;5.65;4.05;;;;;;;13.34;86.50;101661.09;5051381;28;20124;-46
2022/10/07 06:33:51;;;;;;;6.88;4.43;;;;;;;13.20;87.19;101664.75;5050651;28;20240;-43
2022/10/07 06:36:18;;;;;;;7.47;4.55;;;;;;;13.25;87.51;101659.63;5051515;28;20445;-47
2022/10/07 06:38:46;;;;;;;4.60;3.67;;;;;;;13.14;87.74;101666.38;5051924;28;20036;-46
2022/10/07 06:41:13;;;;;;;6.45;4.07;;;;;;;13.24;87.62;101657.16;5051555;28;20497;-43
2022/10/07 06:43:39;;;;;;;5.53;3.90;;;;;;;13.34;86.74;101654.91;5050606;28;20033;-45
2022/10/07 06:46:07;;;;;;;5.43;3.85;;;;;;;13.41;86.49;101663.78;5051174;28;20056;-47
2022/10/07 06:48:34;;;;;;;5.78;3.95;;;;;;;13.47;86.34;101671.03;5051802;28;20025;-47
2022/10/07 06:51:04;;;;;;;5.68;3.92;;;;;;;13.33;86.91;101670.19;5051721;28;20361;-46
2022/10/07 06:53:32;;;;;;;5.47;4.13;;;;;;;13.28;87.24;101671.84;5051737;28;20496;-45
2022/10/07 06:56:02;;;;;;;6.82;3.97;;;;;;;13.25;87.59;101675.75;5051337;28;20044;-45
2022/10/07 06:58:29;;;;;;;7.20;3.70;;;;;;;13.36;87.40;101668.94;5030952;28;20022;-45
2022/10/07 07:00:58;;;;;;;5.57;3.75;;;;;;;13.54;86.53;101674.56;5010324;28;20491;-44
2022/10/07 07:03:24;;;;;;;5.20;3.67;;;;;;;13.45;86.37;101673.94;5011923;28;20021;-44
2022/10/07 07:05:51;;;;;;;6.40;4.03;;;;;;;13.46;86.21;101677.47;5019392;28;20029;-45
2022/10/07 07:08:22;;;;;;;6.82;4.10;;;;;;;13.37;86.53;101682.19;5051437;28;20037;-46
2022/10/07 07:10:49;;;;;;;7.60;4.30;;;;;;;13.38;86.61;101677.63;5051546;28;20028;-45
2022/10/07 07:13:16;;;;;;;5.82;4.30;;;;;;;13.18;87.86;101680.25;5051468;28;20075;-46
2022/10/07 07:15:43;;;;;;;7.65;4.28;;;;;;;13.15;87.54;101673.41;5050712;28;20040;-44
2022/10/07 07:18:10;;;;;;;4.90;3.65;;;;;;;13.35;86.99;101673.50;5051398;28;20040;-47
2022/10/07 07:20:38;;;;;;;5.97;3.97;;;;;;;13.42;86.62;101678.88;5051180;28;20040;-45
2022/10/07 07:23:06;;;;;;;5.53;4.05;;;;;;;13.23;87.16;101680.50;5051363;28;20064;-46
2022/10/07 07:25:37;;;;;;;3.90;3.38;;;;;;;13.33;86.76;101686.34;5050942;28;20020;-43
2022/10/07 07:28:05;;;;;;;4.57;3.40;;;;;;;13.38;86.56;101677.63;5051353;28;20473;-43
2022/10/07 07:30:33;;;;;;;5.05;3.58;;;;;;;13.22;86.59;101683.41;5050829;28;20048;-44
2022/10/07 07:33:00;;;;;;;6.20;4.88;;;;;;;13.17;87.33;101684.00;5034032;28;20033;-43
2022/10/07 07:35:30;;;;;;;8.32;5.00;;;;;;;13.34;86.65;101677.22;5030928;28;20025;-43
2022/10/07 07:37:56;;;;;;;6.32;4.57;;;;;;;13.07;87.42;101680.84;5031549;28;20124;-44
2022/10/07 07:40:23;;;;;;;7.55;5.10;;;;;;;13.24;87.46;101675.97;5031593;28;20026;-45
2022/10/07 07:42:49;;;;;;;6.05;4.50;;;;;;;13.33;86.78;101672.06;5031601;28;20474;-45
2022/10/07 07:45:17;;;;;;;5.93;4.60;;;;;;;13.32;86.35;101678.44;5030719;28;20025;-44
2022/10/07 07:47:48;;;;;;;4.93;4.03;;;;;;;13.37;85.92;101671.44;5031463;28;20037;-45
2022/10/07 07:50:15;;;;;;;5.85;4.35;;;;;;;13.30;86.33;101675.16;5030977;28;20030;-43
2022/10/07 07:52:41;;;;;;;6.05;3.92;;;;;;;13.39;86.11;101669.38;5031458;28;20120;-44
2022/10/07 07:55:07;;;;;;;5.55;3.80;;;;;;;13.22;87.48;101668.13;5030748;28;20116;-44
2022/10/07 07:57:34;;;;;;;5.97;4.00;;;;;;;13.25;87.45;101672.25;5028165;28;20167;-43
2022/10/07 08:00:00;;;;;;;5.78;3.83;;;;;;;13.17;87.71;101674.06;5011139;28;20471;-43
2022/10/07 08:02:26;;;;;;;5.65;4.00;;;;;;;13.34;86.77;101668.34;5019659;28;20474;-45
2022/10/07 08:04:52;;;;;;;5.00;3.67;;;;;;;13.41;86.47;101674.56;5030732;28;20105;-45
2022/10/07 08:07:19;;;;;;;5.18;3.60;;;;;;;13.34;86.73;101677.22;5030995;28;20032;-44
2022/10/07 08:09:45;;;;;;;4.72;4.05;;;;;;;13.33;86.91;101670.19;5031151;28;20029;-44
2022/10/07 08:12:13;;;;;;;3.90;3.28;;;;;;;13.37;86.42;101665.22;5031107;28;20025;-45
2022/10/07 08:14:40;;;;;;;4.22;3.47;;;;;;;13.34;86.50;101671.84;5030335;28;20028;-44
2022/10/07 08:17:06;;;;;;;4.82;3.83;;;;;;;13.06;88.20;101673.81;5030637;28;20385;-46
2022/10/07 08:19:32;;;;;;;6.10;4.07;;;;;;;13.05;88.52;101661.41;5031033;28;20108;-43
2022/10/07 08:21:59;;;;;;;4.85;3.63;;;;;;;13.13;87.87;101670.13;5031208;28;20025;-45
2022/10/07 08:24:26;;;;;;;4.20;3.50;;;;;;;13.12;87.98;101667.63;5030562;28;20061;-43
2022/10/07 08:26:53;;;;;;;5.57;3.72;;;;;;;13.01;88.77;101662.84;5030456;28;20180;-44
2022/10/07 08:29:20;;;;;;;4.28;3.67;;;;;;;13.06;88.53;101663.06;5031235;28;20029;-45
2022/10/07 08:31:47;;;;;;;5.18;3.47;;;;;;;13.24;88.29;101665.22;5039265;28;20081;-45
2022/10/07 08:34:13;;;;;;;7.00;4.88;;;;;;;13.22;88.07;101665.41;5053804;28;20025;-43
2022/10/07 08:36:42;;;;;;;6.68;4.50;;;;;;;13.33;87.97;101672.91;5054159;28;20574;-45
2022/10/07 08:39:09;;;;;;;6.03;4.70;;;;;;;13.23;88.43;101677.81;5053928;28;20095;-45
2022/10/07 08:41:48;;;;;;;7.20;4.55;;;;;;;13.33;88.57;101666.69;5053985;28;20029;-47
2022/10/07 08:44:16;;;;;;;7.10;4.10;;;;;;;13.18;89.29;101672.19;5053705;28;20032;-44
2022/10/07 08:46:54;;;;;;;5.40;4.20;;;;;;;13.10;89.51;101672.38;5049807;28;20033;-46
2022/10/07 08:49:32;;;;;;;6.80;3.92;;;;;;;13.20;89.13;101670.94;5034185;28;20477;-45
2022/10/07 08:52:28;;;;;;;3.70;3.10;;;;;;;13.19;89.21;101673.84;5034034;28;20033;-46
2022/10/07 08:54:54;;;;;;;7.25;3.25;;;;;;;13.21;88.73;101671.81;5033830;28;20029;-45
2022/10/07 08:57:44;;;;;;;3.97;3.13;;;;;;;13.29;88.46;101674.31;5032648;28;20486;-44
2022/10/07 09:00:14;;;;;;;4.68;3.30;;;;;;;13.37;88.19;101668.75;5014554;28;20034;-43
2022/10/07 09:03:15;;;;;;;5.28;2.92;;;;;;;13.30;88.16;101678.66;5014118;28;20355;-44
2022/10/07 09:05:44;;;;;;;5.15;3.22;;;;;;;13.51;87.01;101671.47;5014005;28;20463;-47
2022/10/07 09:08:34;;;;;;;4.80;3.03;;;;;;;13.32;87.79;101679.28;5024813;28;20064;-46
2022/10/07 09:11:14;;;;;;;4.20;3.05;;;;;;;13.28;88.03;101677.22;5033671;28;20103;-43
2022/10/07 09:14:02;;;;;;;4.30;2.92;;;;;;;13.31;88.09;101682.19;5033666;28;20021;-43
2022/10/07 09:16:34;;;;;;;3.75;2.90;;;;;;;13.32;87.96;101687.34;5033348;28;20065;-43
2022/10/07 09:19:03;;;;;;;3.40;2.20;;;;;;;13.37;87.60;101679.50;5033550;28;20108;-46
2022/10/07 09:22:22;;;;;;;3.78;2.40;;;;;;;13.23;88.31;101685.06;5033581;28;20026;-47
2022/10/07 09:24:53;;;;;;;2.92;2.38;;;;;;;13.36;87.76;101680.53;5011303;28;20137;-42
2022/10/07 09:27:21;;;;;;;2.65;2.42;;;;;;;13.39;87.52;101685.53;5032452;28;20482;-46
2022/10/07 09:29:50;;;;;;;2.42;2.22;;;;;;;13.49;86.67;101682.41;5033521;28;20216;-44
2022/10/07 09:32:18;;;;;;;3.70;1.77;;;;;;;13.43;86.90;101685.91;5043851;28;20124;-46
2022/10/07 09:34:45;;;;;;;2.63;2.03;;;;;;;13.60;86.40;101684.53;5052921;28;20025;-45
2022/10/07 09:37:20;;;;;;;2.72;2.28;;;;;;;13.58;86.41;101685.75;5053106;28;20044;-45
2022/10/07 09:39:56;;;;;;;3.05;2.42;;;;;;;13.50;86.55;101683.25;5052860;28;20024;-47
2022/10/07 09:42:35;;;;;;;;;;;;;;;13.59;86.40;101690.09;5053345;28;20052;-46
2022/10/07 09:45:17;;;;;;;4.40;2.78;;;;;;;13.56;86.32;101690.50;5052704;28;19917;-44
2022/10/07 09:47:51;;;;;;;2.47;2.13;;;;;;;13.58;85.89;101688.44;5053019;28;20477;-44
2022/10/07 09:50:39;;;;;;;3.75;2.40;;;;;;;13.62;86.43;101690.50;5053171;28;20029;-45
2022/10/07 09:53:23;;;;;;;4.35;2.78;;;;;;;13.57;86.50;101702.94;5052650;28;20025;-44
2022/10/07 09:55:52;;;;;;;3.55;2.97;;;;;;;13.56;86.66;101698.59;5035147;28;20034;-46
2022/10/07 09:58:27;;;;;;;4.53;3.03;;;;;;;13.57;86.21;101701.06;5023937;28;20359;-46
2022/10/07 10:00:55;;;;;;;;;;;;;;;13.69;85.79;101690.50;5013864;28;20045;-42
2022/10/07 10:03:32;;;;;;;3.55;3.00;;;;;;;13.63;86.22;101702.09;5013367;28;19920;-43
2022/10/07 10:06:01;;;;;;;3.20;2.80;;;;;;;13.69;85.70;101695.91;5012695;28;20127;-44
2022/10/07 10:08:54;;;;;;;3.88;2.33;;;;;;;13.77;85.37;101698.41;5028468;28;20503;-43
2022/10/07 10:11:21;;;;;;;5.80;3.35;;;;;;;13.81;85.28;101694.25;5032855;28;20029;-44
2022/10/07 10:13:50;;;;;;;3.63;2.33;;;;;;;13.55;85.88;101694.22;5028647;28;20084;-44
2022/10/07 10:16:35;;;;;;;3.50;2.72;;;;;;;13.71;85.59;101691.13;5012666;28;20040;-42
2022/10/07 10:19:25;;;;;;;4.05;2.45;;;;;;;13.81;85.07;101693.41;5011980;28;20026;-46
2022/10/07 10:21:56;;;;;;;4.78;3.28;;;;;;;13.55;85.97;101689.69;5017218;28;20497;-46
2022/10/07 10:27:20;;;;;;;3.65;2.80;;;;;;;13.69;85.66;101690.50;5032284;28;20043;-43
2022/10/07 10:30:02;;;;;;;4.35;3.40;;;;;;;13.76;85.11;101691.34;5032247;28;20056;-42
2022/10/07 10:32:54;;;;;;;6.80;3.80;;;;;;;13.89;84.85;101702.13;5032561;28;20494;-44
2022/10/07 10:35:39;;;;;;;5.82;4.20;;;;;;;13.89;84.77;101699.44;5019148;28;20120;-42
2022/10/07 10:38:23;;;;;;;4.97;4.15;;;;;;;13.95;84.70;101703.16;5012577;28;20038;-44
2022/10/07 10:41:07;;;;;;;5.97;4.30;;;;;;;13.83;85.02;101704.81;5021439;28;20029;-45
2022/10/07 10:43:49;;;;;;;8.07;4.45;;;;;;;13.80;85.36;101697.16;5030816;28;20021;-47
2022/10/07 10:46:18;;;;;;;6.45;4.55;;;;;;;13.69;85.83;101694.03;5032205;28;20025;-44
2022/10/07 10:48:54;;;;;;;5.03;3.72;;;;;;;13.63;86.00;101688.66;5031973;28;20041;-44
2022/10/07 10:51:42;;;;;;;12.07;4.80;;;;;;;13.80;85.46;101691.78;5031977;28;20028;-46
2022/10/07 10:54:22;;;;;;;6.72;4.65;;;;;;;13.72;85.56;101692.81;5031193;28;20111;-43
2022/10/07 10:57:04;;;;;;;7.03;4.07;;;;;;;13.87;84.93;101696.09;5032219;28;20033;-43
2022/10/07 10:59:56;;;;;;;5.80;4.00;;;;;;;13.90;84.71;101697.56;5013122;28;20072;-45
2022/10/07 11:02:37;;;;;;;6.50;4.28;;;;;;;13.88;84.76;101695.09;5012305;28;20460;-44
2022/10/07 11:05:05;;;;;;;6.10;3.33;;;;;;;13.93;84.31;101697.97;5011528;28;20437;-43
2022/10/07 11:08:19;;;;;;;3.60;2.88;;;;;;;13.97;84.19;101696.53;5011939;28;20054;-44
2022/10/07 11:10:53;;;;;;;4.93;3.15;;;;;;;14.03;83.68;101691.34;5008102;28;20053;-46
2022/10/07 11:13:39;;;;;;;3.95;3.13;;;;;;;13.90;84.27;101692.19;5026848;28;20037;-45
2022/10/07 11:16:21;;;;;;;4.80;3.35;;;;;;;13.82;85.11;101685.13;5011476;28;20076;-43
2022/10/07 11:18:49;;;;;;;4.70;3.13;;;;;;;13.81;85.46;101688.88;5011707;28;20018;-43
2022/10/07 11:21:25;;;;;;;4.97;3.53;;;;;;;13.86;84.92;101686.38;5011487;28;20486;-42
2022/10/07 11:24:23;;;;;;;5.00;3.78;;;;;;;13.71;85.52;101688.44;5011519;28;20029;-45
2022/10/07 11:26:56;;;;;;;6.05;4.10;;;;;;;13.75;85.55;101684.31;5006303;28;20055;-44
2022/10/07 11:29:54;;;;;;;4.68;4.03;;;;;;;13.85;85.27;101679.34;5011622;28;20034;-43
2022/10/07 11:33:00;;;;;;;6.55;4.70;;;;;;;14.02;84.23;101693.22;5011822;28;20046;-43
2022/10/07 11:35:33;;;;;;;7.95;4.90;;;;;;;14.15;83.45;101689.69;5010134;28;20124;-43
2022/10/07 11:38:12;;;;;;;5.85;4.47;;;;;;;14.34;82.57;101691.53;5012352;28;20033;-43
2022/10/07 11:40:56;;;;;;;6.40;4.07;;;;;;;14.10;82.46;101687.63;5011655;28;20038;-47
2022/10/07 11:43:46;;;;;;;6.47;4.30;;;;;;;13.82;83.73;101684.31;5011733;28;20038;-43
2022/10/07 11:46:40;;;;;;;7.05;4.72;;;;;;;13.80;83.93;101681.81;5012073;28;20026;-45
2022/10/07 11:49:11;;;;;;;8.02;5.50;;;;;;;13.81;83.75;101686.16;5011171;28;20053;-43
2022/10/07 11:51:56;;;;;;;6.55;4.72;;;;;;;13.92;83.59;101690.94;5011470;28;20029;-42
2022/10/07 11:54:26;;;;;;;6.38;4.57;;;;;;;13.95;83.36;101693.22;5011398;28;20041;-43
2022/10/07 11:56:57;;;;;;;6.95;5.47;;;;;;;13.85;83.43;101694.66;5011598;28;20030;-44
2022/10/07 11:59:34;;;;;;;8.32;5.40;;;;;;;13.83;83.83;101697.56;5011020;28;20042;-43
2022/10/07 12:02:01;;;;;;;7.75;5.68;;;;;;;13.68;84.83;101696.94;5011500;28;20319;-42